createdAt,value
2022-08-28T00:01:13.455Z,33
2022-08-28T00:02:17.671Z,34
2022-08-28T00:03:21.932Z,29
2022-08-28T00:04:31.145Z,28
2022-08-28T00:05:45.291Z,31
2022-08-28T00:06:50.491Z,32
2022-08-28T00:07:54.628Z,32
2022-08-28T00:09:02.179Z,37
2022-08-28T00:10:06.303Z,36
2022-08-28T00:11:10.844Z,40
2022-08-28T00:12:50.536Z,46
2022-08-28T00:14:14.878Z,46
2022-08-28T00:15:24.283Z,49
2022-08-28T00:16:30.758Z,50
2022-08-28T00:17:34.968Z,49
2022-08-28T00:18:39.335Z,49
2022-08-28T00:19:53.663Z,46
2022-08-28T00:20:57.803Z,49
2022-08-28T00:22:02.976Z,46
2022-08-28T00:23:07.091Z,43
2022-08-28T00:24:11.436Z,41
2022-08-28T00:25:15.962Z,39
2022-08-28T00:26:23.235Z,37
2022-08-28T00:27:32.591Z,34
2022-08-28T00:28:47.847Z,30
2022-08-28T00:30:07.312Z,32
2022-08-28T00:31:11.599Z,33
2022-08-28T00:32:15.795Z,32
2022-08-28T00:33:24.936Z,31
2022-08-28T00:34:33.218Z,30
2022-08-28T00:35:33.515Z,29
2022-08-28T00:36:53.999Z,33
2022-08-28T00:37:58.194Z,26
2022-08-28T00:39:17.503Z,27
2022-08-28T00:40:29.007Z,27
2022-08-28T00:41:31.711Z,28
2022-08-28T00:44:26.383Z,25
2022-08-28T00:45:30.520Z,25
2022-08-28T00:46:38.352Z,30
2022-08-28T00:47:42.458Z,28
2022-08-28T00:48:48.743Z,27
2022-08-28T00:49:53.014Z,26
2022-08-28T00:51:00.277Z,28
2022-08-28T00:52:07.335Z,27
2022-08-28T00:53:21.830Z,29
2022-08-28T00:54:25.739Z,30
2022-08-28T00:55:30.191Z,28
2022-08-28T00:56:44.387Z,30
2022-08-28T00:57:59.364Z,28
2022-08-28T00:59:08.398Z,27
2022-08-28T01:00:12.871Z,25
2022-08-28T01:01:17.240Z,29
2022-08-28T01:02:21.706Z,30
2022-08-28T01:03:26.483Z,27
2022-08-28T01:04:30.479Z,26
2022-08-28T01:05:35.299Z,25
2022-08-28T01:06:39.467Z,26
2022-08-28T01:07:43.859Z,27
2022-08-28T01:08:50.474Z,27
2022-08-28T01:09:52.524Z,29
2022-08-28T01:10:56.901Z,27
2022-08-28T01:12:02.211Z,26
2022-08-28T01:13:08.775Z,27
2022-08-28T01:14:13.067Z,28
2022-08-28T01:15:17.260Z,26
2022-08-28T01:16:25.320Z,27
2022-08-28T01:17:29.283Z,25
2022-08-28T01:18:33.581Z,26
2022-08-28T01:19:37.803Z,25
2022-08-28T01:20:42.103Z,26
2022-08-28T01:21:49.121Z,25
2022-08-28T01:22:53.347Z,25
2022-08-28T01:24:08.027Z,26
2022-08-28T01:25:12.180Z,28
2022-08-28T01:26:26.479Z,31
2022-08-28T01:27:52.635Z,29
2022-08-28T01:28:56.923Z,26
2022-08-28T01:30:01.188Z,25
2022-08-28T01:31:05.594Z,28
2022-08-28T01:32:11.735Z,30
2022-08-28T01:33:27.919Z,29
2022-08-28T01:34:31.542Z,27
2022-08-28T01:35:35.836Z,27
2022-08-28T01:36:57.024Z,26
2022-08-28T01:38:01.381Z,30
2022-08-28T01:39:05.932Z,30
2022-08-28T01:40:23.164Z,28
2022-08-28T01:41:30.103Z,28
2022-08-28T01:42:34.415Z,25
2022-08-28T01:43:38.963Z,27
2022-08-28T01:44:43.243Z,26
2022-08-28T01:45:47.447Z,28
2022-08-28T01:46:52.811Z,27
2022-08-28T01:47:58.596Z,27
2022-08-28T01:49:02.975Z,27
2022-08-28T01:50:27.123Z,32
2022-08-28T01:51:38.024Z,41
2022-08-28T01:52:39.820Z,46
2022-08-28T01:53:46.602Z,39
2022-08-28T01:54:50.787Z,41
2022-08-28T01:55:55.311Z,39
2022-08-28T01:56:59.788Z,41
2022-08-28T01:58:04.083Z,39
2022-08-28T01:59:08.263Z,50
2022-08-28T02:00:12.432Z,47
2022-08-28T02:01:16.861Z,55
2022-08-28T02:02:20.895Z,52
2022-08-28T02:03:25.188Z,55
2022-08-28T02:04:33.258Z,62
2022-08-28T02:05:37.491Z,56
2022-08-28T02:06:41.964Z,59
2022-08-28T02:07:52.417Z,54
2022-08-28T02:08:56.711Z,63
2022-08-28T02:10:06.083Z,56
2022-08-28T02:11:10.387Z,54
2022-08-28T02:14:20.745Z,56
2022-08-28T02:15:24.979Z,54
2022-08-28T02:16:29.651Z,56
2022-08-28T02:17:35.812Z,58
2022-08-28T02:18:40.147Z,58
2022-08-28T02:19:48.059Z,68
2022-08-28T02:21:02.503Z,62
2022-08-28T02:22:06.915Z,63
2022-08-28T02:23:21.164Z,59
2022-08-28T02:24:30.494Z,58
2022-08-28T02:25:44.024Z,50
2022-08-28T02:26:50.632Z,46
2022-08-28T02:28:09.883Z,50
2022-08-28T02:29:15.527Z,44
2022-08-28T02:30:19.980Z,45
2022-08-28T02:31:24.448Z,45
2022-08-28T02:32:44.719Z,39
2022-08-28T02:33:49.151Z,41
2022-08-28T02:34:53.144Z,38
2022-08-28T02:35:57.220Z,40
2022-08-28T02:37:01.379Z,38
2022-08-28T02:38:05.589Z,37
2022-08-28T02:39:10.579Z,33
2022-08-28T02:40:15.046Z,33
2022-08-28T02:41:19.205Z,33
2022-08-28T02:42:23.579Z,30
2022-08-28T02:43:27.779Z,32
2022-08-28T02:44:31.968Z,30
2022-08-28T02:45:36.583Z,30
2022-08-28T02:46:41.787Z,33
2022-08-28T02:47:45.979Z,32
2022-08-28T02:48:50.324Z,34
2022-08-28T02:49:59.575Z,41
2022-08-28T02:51:03.924Z,35
2022-08-28T02:52:10.535Z,34
2022-08-28T02:53:17.990Z,34
2022-08-28T02:54:27.352Z,33
2022-08-28T02:55:34.154Z,39
2022-08-28T02:56:36.255Z,37
2022-08-28T02:57:44.839Z,38
2022-08-28T02:58:49.067Z,37
2022-08-28T02:59:54.239Z,40
2022-08-28T03:00:59.416Z,43
2022-08-28T03:02:05.607Z,38
2022-08-28T03:03:09.963Z,42
2022-08-28T03:04:14.303Z,39
2022-08-28T03:05:18.491Z,37
2022-08-28T03:06:22.891Z,35
2022-08-28T03:07:27.139Z,35
2022-08-28T03:09:01.299Z,32
2022-08-28T03:10:07.590Z,30
2022-08-28T03:11:11.763Z,32
2022-08-28T03:12:15.995Z,30
2022-08-28T03:13:25.155Z,27
2022-08-28T03:14:33.971Z,26
2022-08-28T03:15:38.215Z,25
2022-08-28T03:16:52.744Z,26
2022-08-28T03:18:05.193Z,28
2022-08-28T03:19:08.591Z,28
2022-08-28T03:20:16.639Z,28
2022-08-28T03:21:21.000Z,28
2022-08-28T03:22:25.483Z,25
2022-08-28T03:23:34.896Z,26
2022-08-28T03:24:41.783Z,30
2022-08-28T03:25:49.043Z,28
2022-08-28T03:27:00.429Z,29
2022-08-28T03:28:06.878Z,29
2022-08-28T03:29:11.043Z,28
2022-08-28T03:30:15.291Z,27
2022-08-28T03:31:20.505Z,28
2022-08-28T03:32:24.879Z,29
2022-08-28T03:33:29.179Z,30
2022-08-28T03:34:33.583Z,30
2022-08-28T03:35:39.015Z,28
2022-08-28T03:36:43.223Z,28
2022-08-28T03:37:47.773Z,29
2022-08-28T03:38:52.291Z,28
2022-08-28T03:39:56.648Z,33
2022-08-28T03:41:00.871Z,32
2022-08-28T03:42:05.339Z,39
2022-08-28T03:43:09.783Z,40
2022-08-28T03:44:15.052Z,45
2022-08-28T03:45:19.291Z,56
2022-08-28T03:46:23.858Z,52
2022-08-28T03:47:27.991Z,61
2022-08-28T03:48:32.259Z,62
2022-08-28T03:49:46.755Z,64
2022-08-28T03:50:56.364Z,66
2022-08-28T03:52:10.905Z,64
2022-08-28T03:53:32.091Z,62
2022-08-28T03:54:36.371Z,68
2022-08-28T03:55:40.779Z,71
2022-08-28T03:56:45.085Z,71
2022-08-28T03:57:49.159Z,77
2022-08-28T03:58:53.331Z,73
2022-08-28T03:59:57.443Z,66
2022-08-28T04:01:03.497Z,64
2022-08-28T04:02:12.103Z,60
2022-08-28T04:03:20.199Z,60
2022-08-28T04:04:24.803Z,55
2022-08-28T04:05:30.627Z,55
2022-08-28T04:06:36.107Z,53
2022-08-28T04:07:39.442Z,55
2022-08-28T04:08:43.939Z,54
2022-08-28T04:09:48.402Z,52
2022-08-28T04:10:52.855Z,53
2022-08-28T04:11:57.155Z,49
2022-08-28T04:13:01.605Z,47
2022-08-28T04:14:05.855Z,43
2022-08-28T04:15:12.067Z,41
2022-08-28T04:16:16.429Z,41
2022-08-28T04:17:21.651Z,41
2022-08-28T04:18:26.681Z,47
2022-08-28T04:19:45.288Z,51
2022-08-28T04:20:49.559Z,62
2022-08-28T04:21:58.815Z,64
2022-08-28T04:23:08.101Z,83
2022-08-28T04:24:14.427Z,76
2022-08-28T04:25:19.123Z,79
2022-08-28T04:26:23.651Z,81
2022-08-28T04:27:29.355Z,77
2022-08-28T04:28:33.791Z,74
2022-08-28T04:29:38.012Z,78
2022-08-28T04:30:42.499Z,81
2022-08-28T04:31:46.703Z,87
2022-08-28T04:34:34.223Z,81
2022-08-28T04:35:43.728Z,84
2022-08-28T04:36:48.143Z,102
2022-08-28T04:37:52.527Z,89
2022-08-28T04:38:56.975Z,93
2022-08-28T04:40:01.217Z,97
2022-08-28T04:41:10.557Z,92
2022-08-28T04:42:20.731Z,99
2022-08-28T04:43:24.864Z,103
2022-08-28T04:44:29.052Z,100
2022-08-28T04:45:39.331Z,90
2022-08-28T04:46:48.210Z,94
2022-08-28T04:48:10.525Z,97
2022-08-28T04:49:06.083Z,94
2022-08-28T04:50:14.712Z,89
2022-08-28T04:51:23.831Z,85
2022-08-28T04:52:32.004Z,84
2022-08-28T04:53:36.295Z,82
2022-08-28T04:54:40.423Z,79
2022-08-28T04:55:53.994Z,93
2022-08-28T04:56:58.831Z,82
2022-08-28T04:58:09.082Z,86
2022-08-28T04:59:13.200Z,81
2022-08-28T05:00:17.332Z,80
2022-08-28T05:01:26.314Z,89
2022-08-28T05:02:30.796Z,104
2022-08-28T05:03:35.195Z,104
2022-08-28T05:04:39.554Z,102
2022-08-28T05:05:43.919Z,100
2022-08-28T05:07:13.103Z,107
2022-08-28T05:08:17.410Z,104
2022-08-28T05:09:21.739Z,101
2022-08-28T05:10:28.755Z,106
2022-08-28T05:11:34.993Z,105
2022-08-28T05:12:37.292Z,96
2022-08-28T05:13:59.531Z,94
2022-08-28T05:15:06.995Z,104
2022-08-28T05:16:11.640Z,94
2022-08-28T05:17:16.015Z,89
2022-08-28T05:18:20.348Z,91
2022-08-28T05:19:24.612Z,87
2022-08-28T05:20:28.932Z,87
2022-08-28T05:21:36.251Z,85
2022-08-28T05:22:40.679Z,84
2022-08-28T05:23:45.011Z,74
2022-08-28T05:24:49.263Z,77
2022-08-28T05:25:53.471Z,71
2022-08-28T05:26:57.775Z,68
2022-08-28T05:28:02.260Z,72
2022-08-28T05:29:06.627Z,68
2022-08-28T05:30:11.387Z,65
2022-08-28T05:31:16.155Z,60
2022-08-28T05:32:20.495Z,61
2022-08-28T05:33:24.791Z,59
2022-08-28T05:34:30.711Z,58
2022-08-28T05:35:35.131Z,62
2022-08-28T05:36:42.598Z,58
2022-08-28T05:37:48.767Z,56
2022-08-28T05:38:53.349Z,53
2022-08-28T05:39:57.929Z,50
2022-08-28T05:41:02.282Z,46
2022-08-28T05:42:06.851Z,47
2022-08-28T05:43:11.179Z,41
2022-08-28T05:44:15.666Z,43
2022-08-28T05:45:22.698Z,47
2022-08-28T05:46:27.091Z,40
2022-08-28T05:47:31.483Z,39
2022-08-28T05:48:37.149Z,34
2022-08-28T05:49:40.267Z,35
2022-08-28T05:50:47.225Z,36
2022-08-28T05:51:49.438Z,34
2022-08-28T05:52:53.843Z,38
2022-08-28T05:53:58.055Z,36
2022-08-28T05:55:02.283Z,35
2022-08-28T05:56:06.935Z,36
2022-08-28T05:57:11.263Z,35
2022-08-28T05:58:15.971Z,34
2022-08-28T05:59:25.643Z,31
2022-08-28T06:00:30.077Z,25
2022-08-28T06:01:36.033Z,25
2022-08-28T06:02:40.567Z,36
2022-08-28T06:03:45.514Z,35
2022-08-28T06:04:54.250Z,26
2022-08-28T06:05:58.699Z,34
2022-08-28T06:07:03.315Z,25
2022-08-28T06:08:07.963Z,31
2022-08-28T06:09:12.400Z,25
2022-08-28T06:10:19.539Z,25
2022-08-28T06:11:24.447Z,35
2022-08-28T06:12:28.742Z,37
2022-08-28T06:13:33.179Z,40
2022-08-28T06:14:37.458Z,40
2022-08-28T06:15:41.926Z,49
2022-08-28T06:17:50.824Z,52
2022-08-28T06:18:57.538Z,61
2022-08-28T06:20:06.010Z,69
2022-08-28T06:21:11.981Z,78
2022-08-28T06:22:24.444Z,72
2022-08-28T06:23:28.779Z,68
2022-08-28T06:24:33.132Z,73
2022-08-28T06:25:37.467Z,79
2022-08-28T06:26:41.818Z,74
2022-08-28T06:27:46.183Z,69
2022-08-28T06:28:50.646Z,62
2022-08-28T06:29:55.091Z,68
2022-08-28T06:31:18.327Z,57
2022-08-28T06:32:08.101Z,63
2022-08-28T06:33:12.440Z,56
2022-08-28T06:34:20.508Z,60
2022-08-28T06:35:28.150Z,62
2022-08-28T06:36:35.518Z,53
2022-08-28T06:37:40.051Z,47
2022-08-28T06:38:44.536Z,43
2022-08-28T06:39:49.034Z,38
2022-08-28T06:40:54.423Z,30
2022-08-28T06:41:58.882Z,33
2022-08-28T06:43:03.304Z,28
2022-08-28T06:44:07.686Z,33
2022-08-28T06:45:11.967Z,26
2022-08-28T06:46:16.501Z,26
2022-08-28T06:47:21.119Z,26
2022-08-28T06:48:26.155Z,25
2022-08-28T06:49:30.430Z,29
2022-08-28T06:50:36.918Z,29
2022-08-28T06:51:44.062Z,25
2022-08-28T06:52:53.299Z,34
2022-08-28T06:53:57.790Z,33
2022-08-28T06:55:02.690Z,30
2022-08-28T06:56:07.335Z,25
2022-08-28T06:57:14.275Z,25
2022-08-28T06:58:19.215Z,42
2022-08-28T06:59:23.651Z,40
2022-08-28T07:00:28.071Z,40
2022-08-28T07:01:32.410Z,49
2022-08-28T07:02:41.076Z,49
2022-08-28T07:03:45.415Z,59
2022-08-28T07:04:49.887Z,69
2022-08-28T07:05:54.146Z,78
2022-08-28T07:06:58.458Z,67
2022-08-28T07:08:02.778Z,70
2022-08-28T07:09:07.104Z,93
2022-08-28T07:10:11.499Z,83
2022-08-28T07:11:15.806Z,86
2022-08-28T07:12:26.006Z,85
2022-08-28T07:13:33.749Z,91
2022-08-28T07:14:37.145Z,89
2022-08-28T07:15:41.797Z,85
2022-08-28T07:16:45.998Z,80
2022-08-28T07:17:50.859Z,77
2022-08-28T07:18:55.418Z,68
2022-08-28T07:19:59.691Z,60
2022-08-28T07:21:04.131Z,57
2022-08-28T07:22:08.490Z,55
2022-08-28T07:23:12.766Z,48
2022-08-28T07:24:17.279Z,46
2022-08-28T07:25:26.642Z,36
2022-08-28T07:26:31.139Z,30
2022-08-28T07:27:35.674Z,31
2022-08-28T07:28:40.183Z,33
2022-08-28T07:29:49.546Z,44
2022-08-28T07:30:53.886Z,28
2022-08-28T07:32:06.196Z,27
2022-08-28T07:33:14.326Z,36
2022-08-28T07:34:18.760Z,30
2022-08-28T07:35:22.995Z,33
2022-08-28T07:36:28.991Z,31
2022-08-28T07:37:31.918Z,34
2022-08-28T07:38:36.590Z,25
2022-08-28T07:39:40.982Z,31
2022-08-28T07:40:45.398Z,32
2022-08-28T07:41:49.770Z,34
2022-08-28T07:42:54.243Z,36
2022-08-28T07:43:58.714Z,42
2022-08-28T07:45:08.134Z,36
2022-08-28T07:46:13.203Z,37
2022-08-28T07:47:17.562Z,34
2022-08-28T07:48:22.106Z,35
2022-08-28T07:49:26.670Z,40
2022-08-28T07:50:31.146Z,40
2022-08-28T07:51:35.462Z,50
2022-08-28T07:52:39.807Z,65
2022-08-28T07:53:44.138Z,62
2022-08-28T07:54:48.466Z,77
2022-08-28T07:55:53.023Z,81
2022-08-28T07:57:00.358Z,88
2022-08-28T07:58:04.746Z,85
2022-08-28T07:59:11.409Z,88
2022-08-28T08:00:15.786Z,85
2022-08-28T08:01:20.288Z,85
2022-08-28T08:02:24.617Z,92
2022-08-28T08:03:31.226Z,82
2022-08-28T08:04:35.886Z,88
2022-08-28T08:05:40.271Z,81
2022-08-28T08:06:44.638Z,76
2022-08-28T08:07:48.972Z,80
2022-08-28T08:08:53.602Z,86
2022-08-28T08:09:57.926Z,80
2022-08-28T08:11:02.147Z,80
2022-08-28T08:12:10.165Z,75
2022-08-28T08:13:13.882Z,71
2022-08-28T08:14:18.342Z,73
2022-08-28T08:15:22.802Z,71
2022-08-28T08:16:27.206Z,78
2022-08-28T08:17:31.706Z,79
2022-08-28T08:18:36.042Z,77
2022-08-28T08:19:44.064Z,79
2022-08-28T08:20:48.750Z,81
2022-08-28T08:21:54.682Z,84
2022-08-28T08:22:57.747Z,89
2022-08-28T08:24:02.950Z,92
2022-08-28T08:25:07.358Z,98
2022-08-28T08:26:11.763Z,102
2022-08-28T08:27:16.090Z,110
2022-08-28T08:28:20.491Z,109
2022-08-28T08:29:25.074Z,107
2022-08-28T08:30:29.529Z,113
2022-08-28T08:31:34.193Z,117
2022-08-28T08:32:38.538Z,120
2022-08-28T08:33:42.838Z,117
2022-08-28T08:34:47.250Z,113
2022-08-28T08:35:51.763Z,114
2022-08-28T08:36:59.602Z,121
2022-08-28T08:38:08.862Z,118
2022-08-28T08:39:13.527Z,115
2022-08-28T08:40:17.921Z,117
2022-08-28T08:41:22.294Z,109
2022-08-28T08:42:29.662Z,108
2022-08-28T08:43:34.002Z,102
2022-08-28T08:44:38.391Z,102
2022-08-28T08:45:42.782Z,89
2022-08-28T08:46:47.009Z,94
2022-08-28T08:47:59.298Z,99
2022-08-28T08:49:03.750Z,91
2022-08-28T08:50:08.148Z,96
2022-08-28T08:51:20.586Z,100
2022-08-28T08:52:24.854Z,94
2022-08-28T08:53:35.478Z,84
2022-08-28T08:54:43.779Z,82
2022-08-28T08:55:48.042Z,70
2022-08-28T08:56:55.438Z,59
2022-08-28T08:57:59.902Z,52
2022-08-28T08:59:11.979Z,48
2022-08-28T09:00:19.085Z,40
2022-08-28T09:01:25.071Z,41
2022-08-28T09:02:31.515Z,40
2022-08-28T09:03:37.884Z,36
2022-08-28T09:04:44.958Z,31
2022-08-28T09:05:57.515Z,29
2022-08-28T09:07:01.895Z,37
2022-08-28T09:08:08.968Z,38
2022-08-28T09:09:13.567Z,45
2022-08-28T09:10:21.008Z,47
2022-08-28T09:11:25.290Z,46
2022-08-28T09:12:38.774Z,48
2022-08-28T09:13:48.402Z,48
2022-08-28T09:14:55.538Z,50
2022-08-28T09:16:00.012Z,57
2022-08-28T09:17:04.518Z,52
2022-08-28T09:18:08.849Z,53
2022-08-28T09:19:22.930Z,50
2022-08-28T09:20:32.429Z,65
2022-08-28T09:21:35.914Z,72
2022-08-28T09:22:41.790Z,69
2022-08-28T09:23:46.857Z,70
2022-08-28T09:24:50.371Z,74
2022-08-28T09:27:01.053Z,81
2022-08-28T09:28:08.339Z,75
2022-08-28T09:29:12.614Z,86
2022-08-28T09:30:19.390Z,95
2022-08-28T09:31:31.598Z,94
2022-08-28T09:33:46.750Z,101
2022-08-28T09:34:51.022Z,101
2022-08-28T09:36:01.298Z,108
2022-08-28T09:37:15.650Z,101
2022-08-28T09:38:25.151Z,94
2022-08-28T09:39:28.845Z,96
2022-08-28T09:40:33.312Z,100
2022-08-28T09:41:42.529Z,98
2022-08-28T09:43:02.926Z,95
2022-08-28T09:44:20.446Z,102
2022-08-28T09:45:25.877Z,98
2022-08-28T09:46:30.434Z,108
2022-08-28T09:47:34.702Z,110
2022-08-28T09:48:41.914Z,108
2022-08-28T09:49:46.349Z,105
2022-08-28T09:50:50.614Z,118
2022-08-28T09:51:58.078Z,109
2022-08-28T09:53:02.613Z,106
2022-08-28T09:54:09.413Z,113
2022-08-28T09:55:23.750Z,106
2022-08-28T09:56:38.154Z,99
2022-08-28T09:57:42.674Z,97
2022-08-28T09:58:48.269Z,95
2022-08-28T09:59:52.797Z,87
2022-08-28T10:00:57.066Z,92
2022-08-28T10:02:07.818Z,95
2022-08-28T10:03:17.134Z,96
2022-08-28T10:04:22.966Z,94
2022-08-28T10:05:37.586Z,98
2022-08-28T10:06:43.641Z,95
2022-08-28T10:07:54.877Z,95
2022-08-28T10:08:58.833Z,98
2022-08-28T10:10:11.186Z,100
2022-08-28T10:11:20.569Z,116
2022-08-28T10:12:33.921Z,120
2022-08-28T10:13:48.426Z,112
2022-08-28T10:14:57.947Z,111
2022-08-28T10:16:04.947Z,110
2022-08-28T10:17:14.905Z,108
2022-08-28T10:18:24.282Z,103
2022-08-28T10:19:36.482Z,109
2022-08-28T10:20:45.793Z,107
2022-08-28T10:22:00.574Z,102
2022-08-28T10:23:17.074Z,104
2022-08-28T10:24:24.794Z,110
2022-08-28T10:25:33.522Z,102
2022-08-28T10:26:42.905Z,93
2022-08-28T10:27:52.306Z,93
2022-08-28T10:29:04.217Z,89
2022-08-28T10:30:18.869Z,88
2022-08-28T10:31:23.530Z,85
2022-08-28T10:32:32.990Z,85
2022-08-28T10:33:49.561Z,78
2022-08-28T10:35:01.785Z,79
2022-08-28T10:36:27.380Z,69
2022-08-28T10:37:20.553Z,73
2022-08-28T10:38:24.835Z,69
2022-08-28T10:39:39.369Z,67
2022-08-28T10:40:43.674Z,80
2022-08-28T10:41:48.034Z,70
2022-08-28T10:42:52.277Z,66
2022-08-28T10:44:04.586Z,64
2022-08-28T10:45:09.169Z,57
2022-08-28T10:46:16.398Z,55
2022-08-28T10:47:20.669Z,59
2022-08-28T10:48:25.030Z,51
2022-08-28T10:49:29.409Z,50
2022-08-28T10:50:43.278Z,38
2022-08-28T10:51:50.349Z,35
2022-08-28T10:53:04.868Z,27
2022-08-28T10:54:14.345Z,27
2022-08-28T10:55:23.958Z,32
2022-08-28T10:56:28.225Z,25
2022-08-28T10:57:36.173Z,25
2022-08-28T10:58:42.537Z,28
2022-08-28T10:59:46.771Z,30
2022-08-28T11:00:54.327Z,35
2022-08-28T11:02:01.597Z,37
2022-08-28T11:03:06.085Z,33
2022-08-28T11:04:10.309Z,25
2022-08-28T11:05:19.722Z,25
2022-08-28T11:06:24.689Z,25
2022-08-28T11:07:37.379Z,29
2022-08-28T11:08:44.625Z,35
2022-08-28T11:09:54.109Z,30
2022-08-28T11:10:58.413Z,26
2022-08-28T11:12:05.033Z,32
2022-08-28T11:13:13.545Z,25
2022-08-28T11:14:27.693Z,29
2022-08-28T11:15:36.954Z,39
2022-08-28T11:16:36.324Z,42
2022-08-28T11:17:45.227Z,44
2022-08-28T11:18:53.398Z,46
2022-08-28T11:20:08.037Z,58
2022-08-28T11:21:15.384Z,55
2022-08-28T11:22:24.696Z,59
2022-08-28T11:23:37.240Z,59
2022-08-28T11:24:51.590Z,75
2022-08-28T11:25:56.112Z,72
2022-08-28T11:27:00.604Z,73
2022-08-28T11:28:10.044Z,79
2022-08-28T11:29:19.488Z,83
2022-08-28T11:30:33.940Z,78
2022-08-28T11:31:38.253Z,84
2022-08-28T11:32:46.884Z,87
2022-08-28T11:33:52.111Z,86
2022-08-28T11:34:56.752Z,82
2022-08-28T11:36:01.321Z,88
2022-08-28T11:38:12.088Z,97
2022-08-28T11:39:26.662Z,102
2022-08-28T11:40:31.149Z,106
2022-08-28T11:41:35.544Z,109
2022-08-28T11:42:40.050Z,118
2022-08-28T11:43:44.428Z,120
2022-08-28T11:44:57.108Z,120
2022-08-28T11:46:05.449Z,118
2022-08-28T11:47:20.260Z,121
2022-08-28T11:48:32.377Z,124
2022-08-28T11:49:36.882Z,126
2022-08-28T11:50:41.556Z,123
2022-08-28T11:51:57.656Z,144
2022-08-28T11:53:07.674Z,162
2022-08-28T11:54:17.517Z,178
2022-08-28T11:55:30.013Z,196
2022-08-28T11:56:39.580Z,211
2022-08-28T11:57:50.753Z,242
2022-08-28T11:58:59.880Z,239
2022-08-28T12:00:07.004Z,253
2022-08-28T12:01:11.792Z,251
2022-08-28T12:02:17.117Z,235
2022-08-28T12:03:31.720Z,258
2022-08-28T12:04:43.810Z,239
2022-08-28T12:05:48.132Z,246
2022-08-28T12:06:55.788Z,234
2022-08-28T12:08:10.768Z,240
2022-08-28T12:09:15.511Z,235
2022-08-28T12:10:27.463Z,240
2022-08-28T12:11:34.389Z,248
2022-08-28T12:12:41.457Z,235
2022-08-28T12:13:45.968Z,247
2022-08-28T12:14:50.716Z,232
2022-08-28T12:15:57.814Z,218
2022-08-28T12:17:07.528Z,209
2022-08-28T12:18:17.062Z,209
2022-08-28T12:19:29.400Z,204
2022-08-28T12:20:36.838Z,199
2022-08-28T12:21:51.536Z,197
2022-08-28T12:22:56.264Z,203
2022-08-28T12:24:05.485Z,207
2022-08-28T12:25:06.844Z,213
2022-08-28T12:26:14.617Z,207
2022-08-28T12:27:25.308Z,217
2022-08-28T12:28:30.796Z,204
2022-08-28T12:29:39.164Z,211
2022-08-28T12:30:51.615Z,202
2022-08-28T12:32:03.758Z,205
2022-08-28T12:33:23.448Z,203
2022-08-28T12:34:28.240Z,211
2022-08-28T12:35:43.856Z,216
2022-08-28T12:36:51.975Z,210
2022-08-28T12:37:57.832Z,206
2022-08-28T12:39:02.544Z,212
2022-08-28T12:40:07.272Z,209
2022-08-28T12:42:22.633Z,210
2022-08-28T12:43:26.940Z,196
2022-08-28T12:44:37.332Z,202
2022-08-28T12:45:42.403Z,195
2022-08-28T12:46:46.672Z,200
2022-08-28T12:47:51.384Z,209
2022-08-28T12:48:56.028Z,205
2022-08-28T12:50:03.012Z,192
2022-08-28T12:51:17.376Z,193
2022-08-28T12:52:24.307Z,190
2022-08-28T12:53:28.516Z,190
2022-08-28T12:54:37.943Z,196
2022-08-28T12:55:42.324Z,190
2022-08-28T12:56:46.940Z,190
2022-08-28T12:57:51.296Z,192
2022-08-28T12:58:55.860Z,180
2022-08-28T13:00:10.412Z,182
2022-08-28T13:01:17.827Z,180
2022-08-28T13:02:22.265Z,166
2022-08-28T13:03:29.532Z,167
2022-08-28T13:04:34.381Z,157
2022-08-28T13:05:41.046Z,153
2022-08-28T13:06:45.549Z,147
2022-08-28T13:07:49.992Z,138
2022-08-28T13:08:54.336Z,131
2022-08-28T13:09:59.249Z,119
2022-08-28T13:11:07.031Z,107
2022-08-28T13:12:11.640Z,102
2022-08-28T13:13:21.848Z,94
2022-08-28T13:14:31.352Z,91
2022-08-28T13:15:38.856Z,77
2022-08-28T13:16:43.559Z,74
2022-08-28T13:17:48.116Z,63
2022-08-28T13:18:52.669Z,58
2022-08-28T13:20:05.144Z,56
2022-08-28T13:21:09.704Z,50
2022-08-28T13:22:19.266Z,42
2022-08-28T13:23:31.492Z,43
2022-08-28T13:24:36.237Z,48
2022-08-28T13:25:40.584Z,45
2022-08-28T13:26:44.898Z,51
2022-08-28T13:27:49.680Z,47
2022-08-28T13:29:02.348Z,43
2022-08-28T13:30:16.796Z,47
2022-08-28T13:31:24.302Z,42
2022-08-28T13:32:31.828Z,41
2022-08-28T13:33:36.652Z,43
2022-08-28T13:34:48.096Z,43
2022-08-28T13:35:45.896Z,37
2022-08-28T13:36:50.520Z,47
2022-08-28T13:37:54.970Z,40
2022-08-28T13:38:59.208Z,38
2022-08-28T13:40:08.258Z,39
2022-08-28T13:41:08.568Z,40
2022-08-28T13:42:12.811Z,39
2022-08-28T13:43:17.280Z,39
2022-08-28T13:44:21.596Z,39
2022-08-28T13:45:31.550Z,32
2022-08-28T13:46:36.360Z,28
2022-08-28T13:47:40.784Z,32
2022-08-28T13:48:45.660Z,29
2022-08-28T13:49:50.006Z,42
2022-08-28T13:50:54.476Z,37
2022-08-28T13:51:59.210Z,41
2022-08-28T13:53:03.691Z,30
2022-08-28T13:54:08.008Z,32
2022-08-28T13:55:12.728Z,26
2022-08-28T13:56:17.236Z,30
2022-08-28T13:57:21.992Z,25
2022-08-28T13:58:27.336Z,30
2022-08-28T13:59:31.951Z,25
2022-08-28T14:00:37.000Z,28
2022-08-28T14:01:42.105Z,25
2022-08-28T14:02:51.372Z,25
2022-08-28T14:04:01.031Z,27
2022-08-28T14:05:05.624Z,36
2022-08-28T14:06:09.994Z,25
2022-08-28T14:07:14.327Z,30
2022-08-28T14:08:18.871Z,25
2022-08-28T14:09:23.231Z,32
2022-08-28T14:10:27.828Z,38
2022-08-28T14:11:32.471Z,30
2022-08-28T14:12:37.163Z,25
2022-08-28T14:13:46.860Z,29
2022-08-28T14:14:47.776Z,27
2022-08-28T14:15:52.567Z,27
2022-08-28T14:16:57.909Z,25
2022-08-28T14:18:03.313Z,30
2022-08-28T14:19:08.015Z,34
2022-08-28T14:20:12.813Z,27
2022-08-28T14:21:17.226Z,29
2022-08-28T14:22:21.623Z,25
2022-08-28T14:23:26.463Z,28
2022-08-28T14:24:33.808Z,25
2022-08-28T14:25:39.258Z,25
2022-08-28T14:26:45.407Z,26
2022-08-28T14:27:49.969Z,26
2022-08-28T14:28:54.377Z,27
2022-08-28T14:30:00.499Z,27
2022-08-28T14:31:05.363Z,30
2022-08-28T14:32:10.133Z,26
2022-08-28T14:33:14.969Z,26
2022-08-28T14:34:19.435Z,26
2022-08-28T14:35:24.067Z,25
2022-08-28T14:36:28.515Z,25
2022-08-28T14:37:33.347Z,28
2022-08-28T14:38:37.611Z,25
2022-08-28T14:39:42.165Z,26
2022-08-28T14:40:46.389Z,29
2022-08-28T14:41:51.020Z,28
2022-08-28T14:42:55.423Z,28
2022-08-28T14:43:59.855Z,25
2022-08-28T14:45:08.627Z,25
2022-08-28T14:48:22.347Z,30
2022-08-28T14:49:27.875Z,26
2022-08-28T14:50:32.475Z,29
2022-08-28T14:51:41.243Z,28
2022-08-28T14:52:45.563Z,25
2022-08-28T14:53:53.136Z,27
2022-08-28T14:54:57.499Z,31
2022-08-28T14:56:02.000Z,30
2022-08-28T14:57:06.259Z,27
2022-08-28T14:58:10.643Z,26
2022-08-28T14:59:17.626Z,25
2022-08-28T15:00:19.541Z,25
2022-08-28T15:01:24.365Z,31
2022-08-28T15:02:29.012Z,25
2022-08-28T15:03:33.364Z,25
2022-08-28T15:04:38.061Z,37
2022-08-28T15:05:42.335Z,35
2022-08-28T15:06:47.058Z,31
2022-08-28T15:07:51.871Z,29
2022-08-28T15:08:56.319Z,28
2022-08-28T15:10:00.755Z,29
2022-08-28T15:11:05.542Z,31
2022-08-28T15:12:09.907Z,32
2022-08-28T15:13:14.779Z,31
2022-08-28T15:14:19.372Z,36
2022-08-28T15:15:24.248Z,30
2022-08-28T15:16:30.217Z,30
2022-08-28T15:17:34.830Z,30
2022-08-28T15:18:39.027Z,25
2022-08-28T15:19:43.935Z,32
2022-08-28T15:20:51.471Z,33
2022-08-28T15:21:56.166Z,37
2022-08-28T15:23:01.319Z,36
2022-08-28T15:24:06.357Z,40
2022-08-28T15:25:15.635Z,28
2022-08-28T15:26:19.919Z,35
2022-08-28T15:27:24.446Z,34
2022-08-28T15:28:28.924Z,28
2022-08-28T15:29:33.202Z,34
2022-08-28T15:30:37.539Z,36
2022-08-28T15:31:42.008Z,41
2022-08-28T15:32:46.595Z,32
2022-08-28T15:33:54.492Z,34
2022-08-28T15:34:59.031Z,37
2022-08-28T15:36:03.454Z,31
2022-08-28T15:37:08.015Z,33
2022-08-28T15:38:12.739Z,33
2022-08-28T15:39:17.432Z,39
2022-08-28T15:40:27.000Z,36
2022-08-28T15:41:36.331Z,37
2022-08-28T15:42:41.383Z,35
2022-08-28T15:44:49.927Z,40
2022-08-28T15:45:54.645Z,39
2022-08-28T15:46:59.378Z,29
2022-08-28T15:48:04.651Z,40
2022-08-28T15:49:09.476Z,31
2022-08-28T15:50:13.766Z,35
2022-08-28T15:51:18.911Z,39
2022-08-28T15:52:22.515Z,35
2022-08-28T15:53:26.875Z,36
2022-08-28T15:54:31.243Z,34
2022-08-28T15:55:36.562Z,41
2022-08-28T15:56:40.151Z,39
2022-08-28T15:57:44.478Z,37
2022-08-28T15:58:48.771Z,41